Terminal Aerodrome Forecast
Issued by NWS Paducah, KY

Home | Current Version | Previous Version | Graphics & Text | Print | Product List | Glossary On
Versions: 1 2 3 4 5 6 7 8 9 10 11 12 13
506
FTUS43 KPAH 271120
TAFPAH
TAF
KPAH 271120Z 2712/2812 04002KT P6SM SKC
      TEMPO 2712/2714 BKN110
     FM272000 09004KT P6SM SCT050
     FM280400 13003KT P6SM SKC=

USA.gov is the U.S. government's official web portal to all federal, state and local government web resources and services.